MyTimes logo

TIMES

Webb Imagery

1/02/2014
Channel Challenge
550m Swim / 2.0km Run - Local Residents

(Click on competitor name to view personalised results)

Name
Race #
Category
Time
(h:mm:ss)
Avg Speed
km/hr
OAll
Place
Cat
Place
PLANT Luke#139Local Senior Male0:12:53"11.9 " 11
BUTT Chloe#318Local Senior Female0:13:13"11.6 " 21
ROWE Mark#56Local Senior Male0:13:30"11.3 " 32
VAN AGTMAAL Bevan#140Local Senior Male0:13:46"11.1 " 43
HENDRICKS Vaughn#159Local Senior Male0:13:55"11.0 " 54
HARRISON Hamish#22Local Senior Male0:13:55"11.0 " 65
FLEISNER Rob#689Local Male 50+0:14:03"10.9 " 71
CORBETT Jim#699Local Male 40-490:14:18"10.7 " 81
HETERBRAEG Andre#90Local Senior Male0:14:29"10.6 " 96
SULLIVAN Matthew#11Local Senior Male0:14:31"10.5 " 107
HOLUB Taylor#134Local Senior Male0:14:35"10.5 " 118
SHAHTAHMASEBI Roxanne#460Local Senior Female0:14:37"10.5 " 122
JUDD Alex#70Local Senior Male0:14:40"10.4 " 139
TILLEY Justin#103Local Senior Male0:14:46"10.4 " 1410
CAVANAGH Daniel#69Local Senior Male0:14:48"10.3 " 1511
MATTHEWS Jack#89Local Senior Male0:15:04"10.2 " 1612
HANLEY Philip#658Local Male 50+0:15:10"10.1 " 172
SORAKI Jackson#115Local Senior Male0:15:21"10.0 " 1813
TURNER Georgia#394Local Junior Female0:15:24"9.9 " 191
BOND Marcus#38Local Senior Male0:15:28"9.9 " 2014
HUMPHRIS Stephen#55Local Senior Male0:15:38"9.8 " 2115
KENT Lucas#112Local Senior Male0:15:39"9.8 " 2216
HUGHES Xavier#727Local Junior Male0:15:45"9.7 " 231
FISHER Surrey#679Local Junior Male0:15:49"9.7 " 242
EDWARDS Molly#395Local Junior Female0:15:55"9.6 " 252
O'BIREN Shannon#150Local Senior Male0:15:58"9.6 " 2617
ONLEY Thomas#87Local Senior Male0:16:00"9.6 " 2718
ADAMS James#58Local Senior Male0:16:03"9.5 " 2819
MC DONALD Angus#152Local Senior Male0:16:06"9.5 " 2920
BENDTSEN Katrina#319Local Senior Female0:16:06"9.5 " 303
TURNER Peter#649Local Male 50+0:16:12"9.4 " 313
WILKINS Shaun#168Local Senior Male0:16:30"9.3 " 3221
SLAVIN Gavin#631Local Male 40-490:16:39"9.2 " 332
MINTER Kris#75Local Senior Male0:16:46"9.1 " 3422
MAHON Debbi#428Local Senior Female0:16:54"9.1 " 354
HARRIS Kris#616Local Male 40-490:16:55"9.0 " 363
DALLINGER Chris#155Local Senior Male0:16:56"9.0 " 3723
CHISHOLM Andy#638Local Male 40-490:16:59"9.0 " 384
TESTER Jarrod#124Local Senior Male0:17:00"9.0 " 3924
BUXTON Corey#62Local Senior Male0:17:05"9.0 " 4025
IRWIN Alexa#439Local Senior Female0:17:08"8.9 " 415
HERBERT Duncan#626Local Male 40-490:17:11"8.9 " 425
OLSEN Andrea#417Local Female 40-490:17:23"8.8 " 431
FISHER Kevin#669Local Male 50+0:17:25"8.8 " 444
KAYE-HELMOT Georgia#453Local Senior Female0:17:27"8.8 " 456
BURT Melissa#443Local Senior Female0:17:28"8.8 " 467
BELL Ash#463Local Senior Female0:17:32"8.7 " 478
DAFF Kris#52Local Senior Male0:17:33"8.7 " 4826
TURNER Olivia#400Local Junior Female0:17:44"8.6 " 493
MARSHALL Luke#137Local Senior Male0:17:50"8.6 " 5027
CAMPBELL Daniel#151Local Senior Male0:17:55"8.5 " 5128
TAYLOR Jack#708Local Junior Male0:17:55"8.5 " 523
WATSON Russell#730Local Male 40-490:18:00"8.5 " 536
BARRY Bill#13Local Senior Male0:18:03"8.5 " 5429
MOSELEY Tessa#339Local Senior Female0:18:19"8.4 " 559
ROBERTSON Lauren#406Local Junior Female0:18:20"8.3 " 564
VANDERZWET Michael#696Local Male 40-490:18:26"8.3 " 577
DAFF Geoff#666Local Male 50+0:18:27"8.3 " 585
WHITE Elliot#88Local Senior Male0:18:28"8.3 " 5930
GOLDIE Tony#724Local Male 40-490:18:33"8.2 " 608
LAMB Simon#142Local Senior Male0:18:43"8.2 " 6131
HUMBERT Cara#326Local Senior Female0:18:43"8.2 " 6210
SCICLUNA Todd#85Local Senior Male0:18:47"8.1 " 6332
STEET Ward#719Local Male 40-490:18:47"8.1 " 649
TUFF Stephen#96Local Senior Male0:18:48"8.1 " 6533
JOHNSTONE Chris#711Local Male 40-490:18:51"8.1 " 6610
BERRY Tim#100Local Senior Male0:18:53"8.1 " 6734
DIEDRICH Glenn#81Local Senior Male0:18:55"8.1 " 6835
MURDOCH Taya#404Local Junior Female0:18:59"8.1 " 695
HOLUB Brittany#446Local Senior Female0:19:01"8.0 " 7011
BERRY Angela#423Local Senior Female0:19:04"8.0 " 7112
O'DONOHUE Mark#684Local Male 50+0:19:04"8.0 " 726
MC DONALD Kellie#425Local Senior Female0:19:06"8.0 " 7313
VERNON Zak#126Local Senior Male0:19:14"8.0 " 7436
ADAMS Mark#78Local Senior Male0:19:15"7.9 " 7537
JAMES Alycia#469Local Senior Female0:19:17"7.9 " 7614
PRENDERGAST Damien#158Local Senior Male0:19:17"7.9 " 7738
FITZGERALD Amy#343Local Senior Female0:19:18"7.9 " 7815
STURGES Tim#687Local Male 40-490:19:18"7.9 " 7911
GRAYDEN Tom#91Local Senior Male0:19:27"7.9 " 8039
BUCHANAN Kathryn#316Local Senior Female0:19:28"7.9 " 8116
O'CONNELL Tony#611Local Male 40-490:19:30"7.8 " 8212
SZEITLI Justine#433Local Senior Female0:19:31"7.8 " 8317
HIBBLE Jenny#379Local Female 50+0:19:34"7.8 " 841
ADAMS Simon#667Local Male 50+0:19:41"7.8 " 857
ADNAM Sian#422Local Female 50+0:19:42"7.8 " 862
SUTHERLAND Michael#749Local Male 40-490:19:45"7.7 " 8713
HILL Jacob#167Local Senior Male0:19:51"7.7 " 8840
KENNEDY Karina#305Local Senior Female0:19:59"7.7 " 8918
VANDERZWET Angus#695Local Junior Male0:20:07"7.6 " 904
POLLARD-VIRTUE Caleb#725Local Junior Male0:20:22"7.5 " 915
TURNER Bridget#437Local Senior Female0:20:25"7.5 " 9219
STAFFORD Rachel#351Local Female 40-490:20:26"7.5 " 932
CHAMBERS Jacquie#418Local Senior Female0:20:35"7.4 " 9420
BEE Darcy#105Local Senior Male0:20:37"7.4 " 9541
GILES Michael#715Local Male 50+0:20:37"7.4 " 968
CHANDLER Mark#117Local Senior Male0:20:43"7.4 " 9742
HOGAN Krystal#457Local Senior Female0:20:45"7.4 " 9821
CHASTON Pete#697Local Male 50+0:20:51"7.3 " 999
FLEISNER Paul#655Local Male 50+0:20:52"7.3 " 10010
LUCK Jarrod#613Local Male 40-490:20:52"7.3 " 10114
MATTHEWS Robert#662Local Male 50+0:20:53"7.3 " 10211
ALDERSON Allan#718Local Male 50+0:20:57"7.3 " 10312
FITZGERALD Rick#647Local Male 50+0:20:59"7.3 " 10413
STELZER Hermann#692Local Male 50+0:21:00"7.3 " 10514
BEHRE Michaela#312Local Senior Female0:21:06"7.3 " 10622
MANNING Simon#736Local Male 50+0:21:08"7.2 " 10715
WARING Colin#617Local Male 40-490:21:09"7.2 " 10815
ONLEY Samantha#411Local Senior Female0:21:13"7.2 " 10923
BRACHER Stephen#720Local Male 40-490:21:15"7.2 " 11016
VAN DER HEYDEN Natalie#320Local Senior Female0:21:17"7.2 " 11124
BAXTER Virginia#442Local Female 40-490:21:19"7.2 " 1123
TAYOR Jonathon#95Local Senior Male0:21:23"7.2 " 11343
LAMBERT B#171Local Senior Male0:21:25"7.1 " 11444
DYNON Paul#634Local Male 40-490:21:28"7.1 " 11517
BREMNER James#61Local Senior Male0:21:29"7.1 " 11645
MANNING John#110Local Senior Male0:21:33"7.1 " 11746
HOLLINS Jenny#358Local Female 40-490:21:43"7.0 " 1184
MARSHALL Sarah#352Local Female 40-490:21:48"7.0 " 1195
BEE Zoe#424Local Junior Female0:21:53"7.0 " 1206
WRIGHT Philip#752Local Male 50+0:22:08"6.9 " 12116
TUFF Laura#436Local Senior Female0:22:28"6.8 " 12225
BLUNDY Bec#466Local Senior Female0:22:42"6.7 " 12326
WILLIAMS Colleen#415Local Female 40-490:23:00"6.7 " 1246
BRUSA Jo#389Local Female 50+0:23:03"6.6 " 1253
PAYNE India#448Local Senior Female0:23:18"6.6 " 12627
PAYNE Lani#412Local Junior Female0:23:19"6.6 " 1277
MACAFFER Susan#350Local Female 40-490:23:30"6.5 " 1287
TRUMBLE Mungo#673Local Junior Male0:23:44"6.4 " 1296
WRIGHT Melanie#456Local Senior Female0:23:47"6.4 " 13028
MOWLAM Fleur#324Local Senior Female0:23:53"6.4 " 13129
HARDMAN Gill#381Local Female 50+0:23:54"6.4 " 1324
DALLINGER Brian#694Local Male 50+0:23:56"6.4 " 13317
HOWARD Lisa#465Local Female 40-490:23:58"6.4 " 1348
CUTHBERTSON Winnie#340Local Senior Female0:24:13"6.3 " 13530
MC DONALD Goroon#691Local Male 50+0:24:31"6.2 " 13618
TOOHEY Lyn#391Local Female 50+0:24:59"6.1 " 1375
DIAMOND Michelle#360Local Female 40-490:25:14"6.1 " 1389
WILLIS Eddy#444Local Female 50+0:25:15"6.1 " 1396
HICKMAN Brendan#700Local Male 50+0:25:46"5.9 " 14019
LEGGATT Luise#407Local Female 50+0:25:59"5.9 " 1417
HIGGINS Jacqui#306Local Senior Female0:26:04"5.9 " 14231
THOMAS Julie#426Local Female 50+0:26:08"5.9 " 1438
MCGENNISKEN Kerry#364Local Female 40-490:26:11"5.8 " 14410
CHAMBERS Ron#648Local Male 50+0:27:05"5.6 " 14520
BAILEY Annie#387Local Female 50+0:27:06"5.6 " 1469
TRAPPETT Steve#733Local Male 40-490:27:08"5.6 " 14718
MORRIS Tony#705Local Male 50+0:27:34"5.6 " 14821
GOODE Tom#643Local Male 50+0:27:49"5.5 " 14922
THOROGOOD Debbie#414Local Female 50+0:27:58"5.5 " 15010
CARTER Verena#347Local Senior Female0:28:00"5.5 " 15132
THOM Robyn#392Local Female 50+0:30:22"5.0 " 15211
DOWNWARD Dylan#114Local Senior Male0:30:25"5.0 " 15347
CROKER Sally#365Local Female 40-490:31:35"4.8 " 15411
HORROCKS Mark#722Local Male 50+0:32:15"4.7 " 15523
TAYLOR Carol#430Local Female 50+0:37:00"4.1 " 15612
JOHNSON Christine#440Local Female 40-490:38:51"3.9 " 15712